sensor_id;sensor_type;location;lat;lon;timestamp;pressure;altitude;pressure_sealevel;temperature
79756;BMP280;69239;50.678;12.280;2023-09-30T00:00:56;98154.59;;;19.75
79756;BMP280;69239;50.678;12.280;2023-09-30T00:03:21;98156.88;;;19.73
79756;BMP280;69239;50.678;12.280;2023-09-30T00:05:47;98163.78;;;19.74
79756;BMP280;69239;50.678;12.280;2023-09-30T00:08:12;98180.56;;;19.75
79756;BMP280;69239;50.678;12.280;2023-09-30T00:10:38;98184.19;;;19.63
79756;BMP280;69239;50.678;12.280;2023-09-30T00:13:03;98175.97;;;19.53
79756;BMP280;69239;50.678;12.280;2023-09-30T00:15:28;98212.41;;;19.61
79756;BMP280;69239;50.678;12.280;2023-09-30T00:17:54;98221.69;;;19.48
79756;BMP280;69239;50.678;12.280;2023-09-30T00:20:20;98224.16;;;19.37
79756;BMP280;69239;50.678;12.280;2023-09-30T00:22:46;98212.81;;;19.21
79756;BMP280;69239;50.678;12.280;2023-09-30T00:25:11;98227.56;;;19.15
79756;BMP280;69239;50.678;12.280;2023-09-30T00:27:36;98228.94;;;19.09
79756;BMP280;69239;50.678;12.280;2023-09-30T00:30:02;98210.25;;;18.89
79756;BMP280;69239;50.678;12.280;2023-09-30T00:32:28;98225.56;;;18.92
79756;BMP280;69239;50.678;12.280;2023-09-30T00:34:53;98236.16;;;18.89
79756;BMP280;69239;50.678;12.280;2023-09-30T00:37:19;98219.78;;;18.71
79756;BMP280;69239;50.678;12.280;2023-09-30T00:39:45;98226.56;;;18.68
79756;BMP280;69239;50.678;12.280;2023-09-30T00:42:10;98230.28;;;18.64
79756;BMP280;69239;50.678;12.280;2023-09-30T00:44:36;98231.06;;;18.64
79756;BMP280;69239;50.678;12.280;2023-09-30T00:47:02;98226.75;;;18.60
79756;BMP280;69239;50.678;12.280;2023-09-30T00:49:28;98239.31;;;18.59
79756;BMP280;69239;50.678;12.280;2023-09-30T00:51:54;98248.88;;;18.60
79756;BMP280;69239;50.678;12.280;2023-09-30T00:54:20;98248.34;;;18.55
79756;BMP280;69239;50.678;12.280;2023-09-30T00:56:47;98247.91;;;18.53
79756;BMP280;69239;50.678;12.280;2023-09-30T00:59:14;98256.63;;;18.50
79756;BMP280;69239;50.678;12.280;2023-09-30T01:01:44;98254.22;;;18.45
79756;BMP280;69239;50.678;12.280;2023-09-30T01:04:11;98245.88;;;18.30
79756;BMP280;69239;50.678;12.280;2023-09-30T01:06:37;98260.50;;;18.37
79756;BMP280;69239;50.678;12.280;2023-09-30T01:09:02;98256.13;;;18.28
79756;BMP280;69239;50.678;12.280;2023-09-30T01:11:28;98260.31;;;18.29
79756;BMP280;69239;50.678;12.280;2023-09-30T01:13:53;98271.34;;;18.28
79756;BMP280;69239;50.678;12.280;2023-09-30T01:16:21;98271.22;;;18.24
79756;BMP280;69239;50.678;12.280;2023-09-30T01:18:46;98257.31;;;18.15
79756;BMP280;69239;50.678;12.280;2023-09-30T01:21:12;98269.72;;;18.23
79756;BMP280;69239;50.678;12.280;2023-09-30T01:23:38;98266.84;;;18.16
79756;BMP280;69239;50.678;12.280;2023-09-30T01:26:11;98266.41;;;18.14
79756;BMP280;69239;50.678;12.280;2023-09-30T01:28:40;98279.06;;;18.17
79756;BMP280;69239;50.678;12.280;2023-09-30T01:31:06;98270.63;;;18.15
79756;BMP280;69239;50.678;12.280;2023-09-30T01:33:32;98272.44;;;18.11
79756;BMP280;69239;50.678;12.280;2023-09-30T01:35:58;98277.75;;;18.11
79756;BMP280;69239;50.678;12.280;2023-09-30T01:38:25;98270.00;;;18.06
79756;BMP280;69239;50.678;12.280;2023-09-30T01:40:50;98289.03;;;18.05
79756;BMP280;69239;50.678;12.280;2023-09-30T01:43:16;98296.59;;;18.03
79756;BMP280;69239;50.678;12.280;2023-09-30T01:45:42;98292.38;;;18.02
79756;BMP280;69239;50.678;12.280;2023-09-30T01:48:08;98290.31;;;17.95
79756;BMP280;69239;50.678;12.280;2023-09-30T01:50:37;98288.28;;;17.92
79756;BMP280;69239;50.678;12.280;2023-09-30T01:53:03;98285.91;;;17.87
79756;BMP280;69239;50.678;12.280;2023-09-30T01:55:29;98297.06;;;17.92
79756;BMP280;69239;50.678;12.280;2023-09-30T01:57:54;98291.31;;;17.90
79756;BMP280;69239;50.678;12.280;2023-09-30T02:00:19;98288.56;;;17.87
79756;BMP280;69239;50.678;12.280;2023-09-30T02:02:45;98284.69;;;17.84
79756;BMP280;69239;50.678;12.280;2023-09-30T02:05:11;98290.78;;;17.85
79756;BMP280;69239;50.678;12.280;2023-09-30T02:07:36;98303.91;;;17.78
79756;BMP280;69239;50.678;12.280;2023-09-30T02:10:02;98308.13;;;17.79
79756;BMP280;69239;50.678;12.280;2023-09-30T02:12:27;98303.91;;;17.78
79756;BMP280;69239;50.678;12.280;2023-09-30T02:14:55;98307.25;;;17.75
79756;BMP280;69239;50.678;12.280;2023-09-30T02:17:21;98307.06;;;17.68
79756;BMP280;69239;50.678;12.280;2023-09-30T02:19:47;98319.25;;;17.69
79756;BMP280;69239;50.678;12.280;2023-09-30T02:22:13;98316.75;;;17.60
79756;BMP280;69239;50.678;12.280;2023-09-30T02:24:38;98335.81;;;17.62
79756;BMP280;69239;50.678;12.280;2023-09-30T02:27:05;98322.84;;;17.48
79756;BMP280;69239;50.678;12.280;2023-09-30T02:29:31;98326.84;;;17.42
79756;BMP280;69239;50.678;12.280;2023-09-30T02:31:56;98332.53;;;17.41
79756;BMP280;69239;50.678;12.280;2023-09-30T02:34:21;98337.09;;;17.40
79756;BMP280;69239;50.678;12.280;2023-09-30T02:36:47;98344.84;;;17.33
79756;BMP280;69239;50.678;12.280;2023-09-30T02:39:12;98352.63;;;17.38
79756;BMP280;69239;50.678;12.280;2023-09-30T02:41:41;98349.41;;;17.33
79756;BMP280;69239;50.678;12.280;2023-09-30T02:44:07;98347.31;;;17.26
79756;BMP280;69239;50.678;12.280;2023-09-30T02:46:32;98354.19;;;17.27
79756;BMP280;69239;50.678;12.280;2023-09-30T02:48:58;98356.41;;;17.25
79756;BMP280;69239;50.678;12.280;2023-09-30T02:51:23;98352.00;;;17.17
79756;BMP280;69239;50.678;12.280;2023-09-30T02:53:50;98366.16;;;17.21
79756;BMP280;69239;50.678;12.280;2023-09-30T02:56:15;98352.31;;;17.03
79756;BMP280;69239;50.678;12.280;2023-09-30T02:58:41;98373.91;;;17.14
79756;BMP280;69239;50.678;12.280;2023-09-30T03:01:06;98379.03;;;17.07
79756;BMP280;69239;50.678;12.280;2023-09-30T03:03:32;98380.94;;;17.06
79756;BMP280;69239;50.678;12.280;2023-09-30T03:05:59;98394.66;;;17.08
79756;BMP280;69239;50.678;12.280;2023-09-30T03:08:25;98391.00;;;17.01
79756;BMP280;69239;50.678;12.280;2023-09-30T03:10:51;98394.09;;;17.03
79756;BMP280;69239;50.678;12.280;2023-09-30T03:13:16;98391.66;;;16.98
79756;BMP280;69239;50.678;12.280;2023-09-30T03:15:44;98380.34;;;16.88
79756;BMP280;69239;50.678;12.280;2023-09-30T03:18:09;98382.91;;;16.85
79756;BMP280;69239;50.678;12.280;2023-09-30T03:20:34;98407.41;;;16.90
79756;BMP280;69239;50.678;12.280;2023-09-30T03:23:01;98421.69;;;16.86
79756;BMP280;69239;50.678;12.280;2023-09-30T03:25:29;98403.34;;;16.72
79756;BMP280;69239;50.678;12.280;2023-09-30T03:27:55;98411.34;;;16.72
79756;BMP280;69239;50.678;12.280;2023-09-30T03:30:22;98408.25;;;16.70
79756;BMP280;69239;50.678;12.280;2023-09-30T03:32:47;98427.28;;;16.72
79756;BMP280;69239;50.678;12.280;2023-09-30T03:35:13;98416.44;;;16.65
79756;BMP280;69239;50.678;12.280;2023-09-30T03:37:45;98401.78;;;16.59
79756;BMP280;69239;50.678;12.280;2023-09-30T03:40:12;98407.75;;;16.56
79756;BMP280;69239;50.678;12.280;2023-09-30T03:42:42;98415.31;;;16.54
79756;BMP280;69239;50.678;12.280;2023-09-30T03:45:08;98433.44;;;16.52
79756;BMP280;69239;50.678;12.280;2023-09-30T03:47:35;98444.56;;;16.54
79756;BMP280;69239;50.678;12.280;2023-09-30T03:50:01;98439.44;;;16.49
79756;BMP280;69239;50.678;12.280;2023-09-30T03:52:30;98424.78;;;16.43
79756;BMP280;69239;50.678;12.280;2023-09-30T03:54:58;98441.81;;;16.42
79756;BMP280;69239;50.678;12.280;2023-09-30T03:57:24;98454.66;;;16.40
79756;BMP280;69239;50.678;12.280;2023-09-30T03:59:49;98462.63;;;16.40
79756;BMP280;69239;50.678;12.280;2023-09-30T04:02:14;98438.50;;;16.24
79756;BMP280;69239;50.678;12.280;2023-09-30T04:04:40;98459.25;;;16.31
79756;BMP280;69239;50.678;12.280;2023-09-30T04:07:06;98462.13;;;16.26
79756;BMP280;69239;50.678;12.280;2023-09-30T04:09:35;98465.84;;;16.24
79756;BMP280;69239;50.678;12.280;2023-09-30T04:12:01;98450.31;;;16.14
79756;BMP280;69239;50.678;12.280;2023-09-30T04:14:26;98435.56;;;16.05
79756;BMP280;69239;50.678;12.280;2023-09-30T04:16:51;98447.84;;;16.09
79756;BMP280;69239;50.678;12.280;2023-09-30T04:19:19;98443.81;;;16.03
79756;BMP280;69239;50.678;12.280;2023-09-30T04:21:45;98460.53;;;16.04
79756;BMP280;69239;50.678;12.280;2023-09-30T04:24:11;98446.22;;;15.96
79756;BMP280;69239;50.678;12.280;2023-09-30T04:26:37;98438.97;;;15.84
79756;BMP280;69239;50.678;12.280;2023-09-30T04:29:03;98452.38;;;15.88
79756;BMP280;69239;50.678;12.280;2023-09-30T04:31:29;98442.75;;;15.75
79756;BMP280;69239;50.678;12.280;2023-09-30T04:33:55;98457.16;;;15.74
79756;BMP280;69239;50.678;12.280;2023-09-30T04:36:23;98468.41;;;15.71
79756;BMP280;69239;50.678;12.280;2023-09-30T04:38:48;98462.25;;;15.58
79756;BMP280;69239;50.678;12.280;2023-09-30T04:41:14;98467.19;;;15.60
79756;BMP280;69239;50.678;12.280;2023-09-30T04:43:41;98461.34;;;15.45
79756;BMP280;69239;50.678;12.280;2023-09-30T04:46:06;98464.91;;;15.49
79756;BMP280;69239;50.678;12.280;2023-09-30T04:48:34;98454.00;;;15.42
79756;BMP280;69239;50.678;12.280;2023-09-30T04:51:00;98441.09;;;15.32
79756;BMP280;69239;50.678;12.280;2023-09-30T04:53:25;98467.03;;;15.35
79756;BMP280;69239;50.678;12.280;2023-09-30T04:55:51;98460.75;;;15.31
79756;BMP280;69239;50.678;12.280;2023-09-30T04:58:17;98456.13;;;15.28
79756;BMP280;69239;50.678;12.280;2023-09-30T05:00:42;98452.69;;;15.19
79756;BMP280;69239;50.678;12.280;2023-09-30T05:03:08;98464.88;;;15.20
79756;BMP280;69239;50.678;12.280;2023-09-30T05:05:33;98450.72;;;15.07
79756;BMP280;69239;50.678;12.280;2023-09-30T05:08:00;98451.63;;;15.03
79756;BMP280;69239;50.678;12.280;2023-09-30T05:10:25;98451.03;;;14.97
79756;BMP280;69239;50.678;12.280;2023-09-30T05:12:51;98455.72;;;14.92
79756;BMP280;69239;50.678;12.280;2023-09-30T05:15:20;98469.16;;;14.95
79756;BMP280;69239;50.678;12.280;2023-09-30T05:17:46;98469.78;;;14.92
79756;BMP280;69239;50.678;12.280;2023-09-30T05:20:12;98466.97;;;14.88
79756;BMP280;69239;50.678;12.280;2023-09-30T05:22:38;98476.66;;;14.84
79756;BMP280;69239;50.678;12.280;2023-09-30T05:25:06;98476.97;;;14.83
79756;BMP280;69239;50.678;12.280;2023-09-30T05:27:32;98474.50;;;14.78
79756;BMP280;69239;50.678;12.280;2023-09-30T05:29:57;98480.56;;;14.78
79756;BMP280;69239;50.678;12.280;2023-09-30T05:32:23;98477.44;;;14.76
79756;BMP280;69239;50.678;12.280;2023-09-30T05:34:48;98460.13;;;14.62
79756;BMP280;69239;50.678;12.280;2023-09-30T05:37:14;98480.25;;;14.71
79756;BMP280;69239;50.678;12.280;2023-09-30T05:39:39;98469.94;;;14.61
79756;BMP280;69239;50.678;12.280;2023-09-30T05:42:05;98491.03;;;14.66
79756;BMP280;69239;50.678;12.280;2023-09-30T05:44:32;98483.34;;;14.56
79756;BMP280;69239;50.678;12.280;2023-09-30T05:46:57;98502.53;;;14.62
79756;BMP280;69239;50.678;12.280;2023-09-30T05:49:25;98509.25;;;14.59
79756;BMP280;69239;50.678;12.280;2023-09-30T05:51:50;98523.72;;;14.62
79756;BMP280;69239;50.678;12.280;2023-09-30T05:54:16;98523.59;;;14.58
79756;BMP280;69239;50.678;12.280;2023-09-30T05:56:41;98516.88;;;14.52
79756;BMP280;69239;50.678;12.280;2023-09-30T05:59:08;98515.66;;;14.58
79756;BMP280;69239;50.678;12.280;2023-09-30T06:01:34;98515.16;;;14.56
79756;BMP280;69239;50.678;12.280;2023-09-30T06:04:01;98512.66;;;14.51
79756;BMP280;69239;50.678;12.280;2023-09-30T06:06:27;98528.72;;;14.63
79756;BMP280;69239;50.678;12.280;2023-09-30T06:08:58;98532.31;;;14.67
79756;BMP280;69239;50.678;12.280;2023-09-30T06:11:24;98525.13;;;14.68
79756;BMP280;69239;50.678;12.280;2023-09-30T06:13:51;98514.41;;;14.64
79756;BMP280;69239;50.678;12.280;2023-09-30T06:16:18;98525.47;;;14.83
79756;BMP280;69239;50.678;12.280;2023-09-30T06:18:43;98511.59;;;14.78
79756;BMP280;69239;50.678;12.280;2023-09-30T06:21:10;98529.38;;;14.95
79756;BMP280;69239;50.678;12.280;2023-09-30T06:23:35;98539.63;;;15.05
79756;BMP280;69239;50.678;12.280;2023-09-30T06:26:01;98548.84;;;15.16
79756;BMP280;69239;50.678;12.280;2023-09-30T06:28:29;98532.13;;;15.15
79756;BMP280;69239;50.678;12.280;2023-09-30T06:30:56;98516.06;;;15.12
79756;BMP280;69239;50.678;12.280;2023-09-30T06:33:21;98547.88;;;15.29
79756;BMP280;69239;50.678;12.280;2023-09-30T06:35:46;98538.53;;;15.23
79756;BMP280;69239;50.678;12.280;2023-09-30T06:38:19;98544.41;;;15.37
79756;BMP280;69239;50.678;12.280;2023-09-30T06:40:44;98550.94;;;15.48
79756;BMP280;69239;50.678;12.280;2023-09-30T06:43:11;98535.97;;;15.52
79756;BMP280;69239;50.678;12.280;2023-09-30T06:45:37;98526.13;;;15.44
79756;BMP280;69239;50.678;12.280;2023-09-30T06:48:07;98540.19;;;15.45
79756;BMP280;69239;50.678;12.280;2023-09-30T06:50:38;98554.19;;;15.54
79756;BMP280;69239;50.678;12.280;2023-09-30T06:53:04;98543.56;;;15.54
79756;BMP280;69239;50.678;12.280;2023-09-30T06:55:30;98546.22;;;15.54
79756;BMP280;69239;50.678;12.280;2023-09-30T06:57:57;98552.66;;;15.62
79756;BMP280;69239;50.678;12.280;2023-09-30T07:00:22;98564.16;;;15.66
79756;BMP280;69239;50.678;12.280;2023-09-30T07:02:47;98566.22;;;15.69
79756;BMP280;69239;50.678;12.280;2023-09-30T07:05:14;98577.56;;;15.78
79756;BMP280;69239;50.678;12.280;2023-09-30T07:07:41;98582.72;;;15.83
79756;BMP280;69239;50.678;12.280;2023-09-30T07:10:10;98582.81;;;15.86
79756;BMP280;69239;50.678;12.280;2023-09-30T07:12:36;98581.41;;;15.89
79756;BMP280;69239;50.678;12.280;2023-09-30T07:15:03;98583.44;;;15.92
79756;BMP280;69239;50.678;12.280;2023-09-30T07:17:29;98583.91;;;15.94
79756;BMP280;69239;50.678;12.280;2023-09-30T07:19:55;98574.84;;;15.95
79756;BMP280;69239;50.678;12.280;2023-09-30T07:22:20;98587.78;;;16.05
79756;BMP280;69239;50.678;12.280;2023-09-30T07:24:46;98567.47;;;16.01
79756;BMP280;69239;50.678;12.280;2023-09-30T07:27:11;98572.94;;;16.04
79756;BMP280;69239;50.678;12.280;2023-09-30T07:29:36;98589.44;;;16.10
79756;BMP280;69239;50.678;12.280;2023-09-30T07:32:02;98574.66;;;16.00
79756;BMP280;69239;50.678;12.280;2023-09-30T07:34:27;98568.97;;;16.10
79756;BMP280;69239;50.678;12.280;2023-09-30T07:36:53;98557.44;;;16.06
79756;BMP280;69239;50.678;12.280;2023-09-30T07:39:18;98581.72;;;16.26
79756;BMP280;69239;50.678;12.280;2023-09-30T07:41:43;98588.53;;;16.35
79756;BMP280;69239;50.678;12.280;2023-09-30T07:44:09;98572.06;;;16.42
79756;BMP280;69239;50.678;12.280;2023-09-30T07:46:35;98571.91;;;16.47
79756;BMP280;69239;50.678;12.280;2023-09-30T07:49:00;98589.69;;;16.55
79756;BMP280;69239;50.678;12.280;2023-09-30T07:51:26;98601.34;;;16.63
79756;BMP280;69239;50.678;12.280;2023-09-30T07:53:51;98579.28;;;16.62
79756;BMP280;69239;50.678;12.280;2023-09-30T07:56:17;98593.72;;;16.73
79756;BMP280;69239;50.678;12.280;2023-09-30T07:58:42;98581.53;;;16.72
79756;BMP280;69239;50.678;12.280;2023-09-30T08:01:08;98575.00;;;16.70
79756;BMP280;69239;50.678;12.280;2023-09-30T08:03:33;98577.13;;;16.76
79756;BMP280;69239;50.678;12.280;2023-09-30T08:06:00;98573.22;;;16.74
79756;BMP280;69239;50.678;12.280;2023-09-30T08:08:25;98571.06;;;16.76
79756;BMP280;69239;50.678;12.280;2023-09-30T08:10:50;98576.72;;;16.86
79756;BMP280;69239;50.678;12.280;2023-09-30T08:13:20;98582.97;;;16.90
79756;BMP280;69239;50.678;12.280;2023-09-30T08:15:46;98590.78;;;16.96
79756;BMP280;69239;50.678;12.280;2023-09-30T08:18:11;98607.09;;;17.06
79756;BMP280;69239;50.678;12.280;2023-09-30T08:20:36;98602.00;;;17.13
79756;BMP280;69239;50.678;12.280;2023-09-30T08:23:02;98602.25;;;17.20
79756;BMP280;69239;50.678;12.280;2023-09-30T08:25:28;98597.94;;;17.28
79756;BMP280;69239;50.678;12.280;2023-09-30T08:27:54;98604.88;;;17.41
79756;BMP280;69239;50.678;12.280;2023-09-30T08:30:19;98599.16;;;17.51
79756;BMP280;69239;50.678;12.280;2023-09-30T08:32:45;98606.50;;;17.67
79756;BMP280;69239;50.678;12.280;2023-09-30T08:35:11;98624.69;;;17.77
79756;BMP280;69239;50.678;12.280;2023-09-30T08:37:38;98630.25;;;17.84
79756;BMP280;69239;50.678;12.280;2023-09-30T08:40:04;98620.81;;;17.86
79756;BMP280;69239;50.678;12.280;2023-09-30T08:42:32;98628.47;;;18.12
79756;BMP280;69239;50.678;12.280;2023-09-30T08:44:59;98635.78;;;18.40
79756;BMP280;69239;50.678;12.280;2023-09-30T08:47:28;98637.50;;;18.72
79756;BMP280;69239;50.678;12.280;2023-09-30T08:49:59;98650.94;;;19.16
79756;BMP280;69239;50.678;12.280;2023-09-30T08:52:31;98643.91;;;19.70
79756;BMP280;69239;50.678;12.280;2023-09-30T08:54:57;98633.75;;;20.27
79756;BMP280;69239;50.678;12.280;2023-09-30T08:57:22;98638.66;;;20.79
79756;BMP280;69239;50.678;12.280;2023-09-30T08:59:50;98640.06;;;21.34
79756;BMP280;69239;50.678;12.280;2023-09-30T09:02:18;98646.59;;;21.82
79756;BMP280;69239;50.678;12.280;2023-09-30T09:04:45;98637.81;;;22.12
79756;BMP280;69239;50.678;12.280;2023-09-30T09:07:11;98621.09;;;22.22
79756;BMP280;69239;50.678;12.280;2023-09-30T09:09:37;98638.09;;;22.33
79756;BMP280;69239;50.678;12.280;2023-09-30T09:12:02;98628.09;;;22.30
79756;BMP280;69239;50.678;12.280;2023-09-30T09:14:39;98635.38;;;22.59
79756;BMP280;69239;50.678;12.280;2023-09-30T09:17:07;98639.47;;;22.87
79756;BMP280;69239;50.678;12.280;2023-09-30T09:19:33;98628.00;;;22.90
79756;BMP280;69239;50.678;12.280;2023-09-30T09:22:01;98636.97;;;23.04
79756;BMP280;69239;50.678;12.280;2023-09-30T09:24:38;98639.00;;;23.14
79756;BMP280;69239;50.678;12.280;2023-09-30T09:27:12;98645.09;;;23.08
79756;BMP280;69239;50.678;12.280;2023-09-30T09:29:41;98654.16;;;22.96
79756;BMP280;69239;50.678;12.280;2023-09-30T09:32:11;98654.25;;;23.03
79756;BMP280;69239;50.678;12.280;2023-09-30T09:34:41;98646.06;;;23.33
79756;BMP280;69239;50.678;12.280;2023-09-30T09:37:15;98637.78;;;23.52
79756;BMP280;69239;50.678;12.280;2023-09-30T09:39:51;98641.75;;;23.69
79756;BMP280;69239;50.678;12.280;2023-09-30T09:42:30;98645.97;;;23.70
79756;BMP280;69239;50.678;12.280;2023-09-30T09:44:59;98637.25;;;23.87
79756;BMP280;69239;50.678;12.280;2023-09-30T09:47:24;98632.63;;;23.88
79756;BMP280;69239;50.678;12.280;2023-09-30T09:49:51;98644.16;;;23.85
79756;BMP280;69239;50.678;12.280;2023-09-30T09:52:18;98650.59;;;23.70
79756;BMP280;69239;50.678;12.280;2023-09-30T09:54:44;98639.34;;;23.53
79756;BMP280;69239;50.678;12.280;2023-09-30T09:57:10;98641.34;;;23.64
79756;BMP280;69239;50.678;12.280;2023-09-30T09:59:36;98644.13;;;23.78
79756;BMP280;69239;50.678;12.280;2023-09-30T10:02:09;98642.69;;;23.98
79756;BMP280;69239;50.678;12.280;2023-09-30T10:04:36;98644.31;;;24.13
79756;BMP280;69239;50.678;12.280;2023-09-30T10:07:03;98637.84;;;24.28
79756;BMP280;69239;50.678;12.280;2023-09-30T10:09:30;98639.06;;;24.52
79756;BMP280;69239;50.678;12.280;2023-09-30T10:11:58;98641.81;;;24.63
79756;BMP280;69239;50.678;12.280;2023-09-30T10:14:34;98646.06;;;24.67
79756;BMP280;69239;50.678;12.280;2023-09-30T10:17:01;98636.78;;;24.65
79756;BMP280;69239;50.678;12.280;2023-09-30T10:19:26;98633.72;;;24.66
79756;BMP280;69239;50.678;12.280;2023-09-30T10:24:47;98656.41;;;24.55
79756;BMP280;69239;50.678;12.280;2023-09-30T10:40:46;98635.28;;;24.64
79756;BMP280;69239;50.678;12.280;2023-09-30T10:43:31;98635.28;;;24.64
79756;BMP280;69239;50.678;12.280;2023-09-30T10:45:56;98633.41;;;24.89
79756;BMP280;69239;50.678;12.280;2023-09-30T10:51:01;98626.84;;;25.08
79756;BMP280;69239;50.678;12.280;2023-09-30T10:53:41;98633.81;;;25.05
79756;BMP280;69239;50.678;12.280;2023-09-30T10:56:06;98641.16;;;25.16
79756;BMP280;69239;50.678;12.280;2023-09-30T11:01:17;98626.88;;;25.47
79756;BMP280;69239;50.678;12.280;2023-09-30T11:03:44;98619.56;;;25.44
79756;BMP280;69239;50.678;12.280;2023-09-30T11:06:12;98617.59;;;25.48
79756;BMP280;69239;50.678;12.280;2023-09-30T11:08:44;98617.59;;;25.55
79756;BMP280;69239;50.678;12.280;2023-09-30T11:11:11;98617.56;;;25.69
79756;BMP280;69239;50.678;12.280;2023-09-30T11:13:36;98614.50;;;25.57
79756;BMP280;69239;50.678;12.280;2023-09-30T11:16:03;98616.06;;;25.54
79756;BMP280;69239;50.678;12.280;2023-09-30T11:18:30;98611.06;;;25.49
79756;BMP280;69239;50.678;12.280;2023-09-30T11:21:22;98621.47;;;25.50
79756;BMP280;69239;50.678;12.280;2023-09-30T11:23:48;98610.66;;;25.50
79756;BMP280;69239;50.678;12.280;2023-09-30T11:26:13;98620.63;;;25.64
79756;BMP280;69239;50.678;12.280;2023-09-30T11:28:44;98612.97;;;25.48
79756;BMP280;69239;50.678;12.280;2023-09-30T11:31:11;98606.81;;;25.48
79756;BMP280;69239;50.678;12.280;2023-09-30T11:33:52;98600.25;;;25.63
79756;BMP280;69239;50.678;12.280;2023-09-30T11:36:19;98608.69;;;25.69
79756;BMP280;69239;50.678;12.280;2023-09-30T11:38:46;98589.47;;;25.52
79756;BMP280;69239;50.678;12.280;2023-09-30T11:41:13;98595.66;;;25.53
79756;BMP280;69239;50.678;12.280;2023-09-30T11:43:58;98592.16;;;25.63
79756;BMP280;69239;50.678;12.280;2023-09-30T11:46:25;98600.56;;;25.90
79756;BMP280;69239;50.678;12.280;2023-09-30T11:48:57;98598.22;;;25.96
79756;BMP280;69239;50.678;12.280;2023-09-30T11:51:23;98589.03;;;25.75
79756;BMP280;69239;50.678;12.280;2023-09-30T11:53:52;98601.41;;;25.66
79756;BMP280;69239;50.678;12.280;2023-09-30T11:56:23;98575.97;;;25.63
79756;BMP280;69239;50.678;12.280;2023-09-30T11:58:53;98584.72;;;25.92
79756;BMP280;69239;50.678;12.280;2023-09-30T12:01:19;98592.72;;;26.17
79756;BMP280;69239;50.678;12.280;2023-09-30T12:03:49;98600.66;;;26.42
79756;BMP280;69239;50.678;12.280;2023-09-30T12:06:17;98587.13;;;26.52
79756;BMP280;69239;50.678;12.280;2023-09-30T12:08:42;98612.81;;;26.78
79756;BMP280;69239;50.678;12.280;2023-09-30T12:11:08;98596.88;;;26.91
79756;BMP280;69239;50.678;12.280;2023-09-30T12:13:33;98558.44;;;26.72
79756;BMP280;69239;50.678;12.280;2023-09-30T12:15:59;98579.56;;;26.81
79756;BMP280;69239;50.678;12.280;2023-09-30T12:18:24;98571.88;;;26.76
79756;BMP280;69239;50.678;12.280;2023-09-30T12:20:50;98578.03;;;26.77
79756;BMP280;69239;50.678;12.280;2023-09-30T12:23:17;98577.69;;;26.74
79756;BMP280;69239;50.678;12.280;2023-09-30T12:25:44;98561.22;;;26.58
79756;BMP280;69239;50.678;12.280;2023-09-30T12:28:09;98566.97;;;26.60
79756;BMP280;69239;50.678;12.280;2023-09-30T12:30:34;98569.38;;;26.48
79756;BMP280;69239;50.678;12.280;2023-09-30T12:33:00;98564.78;;;26.41
79756;BMP280;69239;50.678;12.280;2023-09-30T12:35:26;98556.41;;;26.28
79756;BMP280;69239;50.678;12.280;2023-09-30T12:37:51;98559.94;;;26.15
79756;BMP280;69239;50.678;12.280;2023-09-30T12:40:17;98557.66;;;26.10
79756;BMP280;69239;50.678;12.280;2023-09-30T12:42:43;98561.13;;;26.14
79756;BMP280;69239;50.678;12.280;2023-09-30T12:45:10;98555.00;;;26.03
79756;BMP280;69239;50.678;12.280;2023-09-30T12:47:35;98556.63;;;25.82
79756;BMP280;69239;50.678;12.280;2023-09-30T12:50:01;98559.00;;;25.66
79756;BMP280;69239;50.678;12.280;2023-09-30T12:52:26;98555.97;;;25.50
79756;BMP280;69239;50.678;12.280;2023-09-30T12:54:52;98549.84;;;25.32
79756;BMP280;69239;50.678;12.280;2023-09-30T12:57:17;98544.44;;;25.28
79756;BMP280;69239;50.678;12.280;2023-09-30T12:59:46;98538.69;;;25.19
79756;BMP280;69239;50.678;12.280;2023-09-30T13:02:12;98552.91;;;25.34
79756;BMP280;69239;50.678;12.280;2023-09-30T13:04:38;98536.69;;;25.48
79756;BMP280;69239;50.678;12.280;2023-09-30T13:07:11;98552.03;;;25.79
79756;BMP280;69239;50.678;12.280;2023-09-30T13:09:38;98552.69;;;25.98
79756;BMP280;69239;50.678;12.280;2023-09-30T13:12:03;98531.78;;;26.12
79756;BMP280;69239;50.678;12.280;2023-09-30T13:14:29;98547.91;;;26.30
79756;BMP280;69239;50.678;12.280;2023-09-30T13:16:54;98544.41;;;26.33
79756;BMP280;69239;50.678;12.280;2023-09-30T13:19:20;98544.50;;;26.19
79756;BMP280;69239;50.678;12.280;2023-09-30T13:21:49;98537.56;;;26.18
79756;BMP280;69239;50.678;12.280;2023-09-30T13:24:19;98533.34;;;26.17
79756;BMP280;69239;50.678;12.280;2023-09-30T13:26:45;98537.16;;;26.23
79756;BMP280;69239;50.678;12.280;2023-09-30T13:29:10;98541.78;;;26.22
79756;BMP280;69239;50.678;12.280;2023-09-30T13:31:37;98536.38;;;26.22
79756;BMP280;69239;50.678;12.280;2023-09-30T13:34:04;98532.50;;;26.27
79756;BMP280;69239;50.678;12.280;2023-09-30T13:36:29;98533.69;;;26.19
79756;BMP280;69239;50.678;12.280;2023-09-30T13:38:55;98542.66;;;25.98
79756;BMP280;69239;50.678;12.280;2023-09-30T13:41:21;98539.69;;;25.71
79756;BMP280;69239;50.678;12.280;2023-09-30T13:43:46;98533.97;;;25.59
79756;BMP280;69239;50.678;12.280;2023-09-30T13:46:11;98509.00;;;25.44
79756;BMP280;69239;50.678;12.280;2023-09-30T13:48:38;98526.28;;;25.50
79756;BMP280;69239;50.678;12.280;2023-09-30T13:51:07;98532.09;;;25.38
79756;BMP280;69239;50.678;12.280;2023-09-30T13:53:32;98518.72;;;25.02
79756;BMP280;69239;50.678;12.280;2023-09-30T13:55:58;98528.69;;;24.84
79756;BMP280;69239;50.678;12.280;2023-09-30T13:58:23;98534.09;;;24.81
79756;BMP280;69239;50.678;12.280;2023-09-30T14:00:49;98530.25;;;24.67
79756;BMP280;69239;50.678;12.280;2023-09-30T14:03:18;98531.72;;;24.51
79756;BMP280;69239;50.678;12.280;2023-09-30T14:05:44;98535.19;;;24.41
79756;BMP280;69239;50.678;12.280;2023-09-30T14:08:10;98517.09;;;24.30
79756;BMP280;69239;50.678;12.280;2023-09-30T14:10:36;98519.78;;;24.38
79756;BMP280;69239;50.678;12.280;2023-09-30T14:13:01;98523.25;;;24.31
79756;BMP280;69239;50.678;12.280;2023-09-30T14:15:27;98529.00;;;24.29